Time;durP1;ratioP1;P1;durP2;ratioP2;P2;SDS_P1;SDS_P2;PMS_P1;PMS_P2;Temp;Humidity;BMP_temperature;BMP_pressure;BME280_temperature;BME280_humidity;BME280_pressure;Samples;Min_cycle;Max_cycle;Signal;HPM_P1;HPM_P2
2022/11/21 00:00:29;;;;;;;97.17;33.93;;;3.90;99.90;;;;;;5053313;28;20037;-57
2022/11/21 00:03:00;;;;;;;88.93;33.87;;;3.80;99.90;;;;;;5053338;28;20466;-53
2022/11/21 00:05:27;;;;;;;95.47;35.33;;;3.80;99.90;;;;;;5053282;28;20115;-56
2022/11/21 00:07:53;;;;;;;85.93;32.53;;;3.80;99.90;;;;;;5053127;28;20033;-56
2022/11/21 00:10:19;;;;;;;98.40;36.03;;;3.80;99.90;;;;;;5053065;28;20367;-53
2022/11/21 00:12:45;;;;;;;98.53;36.93;;;3.90;99.90;;;;;;5053486;28;20043;-56
2022/11/21 00:15:11;;;;;;;112.47;40.67;;;3.90;99.90;;;;;;5053072;28;20389;-56
2022/11/21 00:17:37;;;;;;;108.83;40.37;;;3.80;99.90;;;;;;5052906;28;20036;-55
2022/11/21 00:20:03;;;;;;;111.70;38.93;;;3.80;99.90;;;;;;5052945;28;20024;-55
2022/11/21 00:22:30;;;;;;;116.70;40.60;;;3.80;99.90;;;;;;5053035;28;20033;-57
2022/11/21 00:24:56;;;;;;;107.23;40.37;;;3.80;99.90;;;;;;5053135;28;20037;-56
2022/11/21 00:27:22;;;;;;;109.73;39.57;;;3.80;99.90;;;;;;5052755;28;20029;-56
2022/11/21 00:29:48;;;;;;;104.33;39.27;;;3.80;99.90;;;;;;5052682;28;20040;-57
2022/11/21 00:32:13;;;;;;;112.37;40.43;;;3.80;99.90;;;;;;5053142;28;20123;-57
2022/11/21 00:34:39;;;;;;;115.97;41.77;;;3.80;99.90;;;;;;5052767;28;20424;-56
2022/11/21 00:37:05;;;;;;;122.47;42.50;;;3.80;99.90;;;;;;5052521;28;20036;-56
2022/11/21 00:39:30;;;;;;;120.73;43.10;;;3.80;99.90;;;;;;5052557;28;20107;-56
2022/11/21 00:41:56;;;;;;;131.00;45.03;;;3.80;99.90;;;;;;5052623;28;20025;-56
2022/11/21 00:44:22;;;;;;;129.17;45.10;;;3.80;99.90;;;;;;5052671;28;20033;-55
2022/11/21 00:46:47;;;;;;;132.10;45.47;;;3.80;99.90;;;;;;5051268;28;20094;-55
2022/11/21 00:49:13;;;;;;;132.40;44.37;;;3.70;99.90;;;;;;5052335;28;20398;-55
2022/11/21 00:51:39;;;;;;;134.63;44.97;;;3.70;99.90;;;;;;5052449;28;20100;-55
2022/11/21 00:54:04;;;;;;;137.30;46.13;;;3.70;99.90;;;;;;5052309;28;20547;-55
2022/11/21 00:56:30;;;;;;;136.07;47.00;;;3.70;99.90;;;;;;5052402;28;20032;-55
2022/11/21 00:58:56;;;;;;;131.83;45.17;;;3.70;99.90;;;;;;5052215;28;20075;-54
2022/11/21 01:01:21;;;;;;;121.27;43.53;;;3.80;99.90;;;;;;5052376;28;20029;-55
2022/11/21 01:03:47;;;;;;;128.07;44.13;;;3.70;99.90;;;;;;5052680;28;20351;-56
2022/11/21 01:06:14;;;;;;;127.37;42.23;;;3.60;99.90;;;;;;5052126;28;20442;-56
2022/11/21 01:08:42;;;;;;;125.43;42.83;;;3.70;99.90;;;;;;5051828;28;20538;-54
2022/11/21 01:11:17;;;;;;;119.17;42.97;;;3.70;99.90;;;;;;5052292;28;20370;-55
2022/11/21 01:13:43;;;;;;;122.57;41.83;;;3.80;99.90;;;;;;5052220;28;20366;-55
2022/11/21 01:16:12;;;;;;;117.87;42.47;;;3.70;99.90;;;;;;5051854;28;20045;-52
2022/11/21 01:18:38;;;;;;;109.47;39.83;;;3.70;99.90;;;;;;5051664;28;20426;-54
2022/11/21 01:21:06;;;;;;;114.20;40.80;;;3.70;99.90;;;;;;5051891;28;20021;-54
2022/11/21 01:23:33;;;;;;;115.50;40.97;;;3.70;99.90;;;;;;5052062;28;20135;-54
2022/11/21 01:26:08;;;;;;;119.17;41.90;;;3.80;99.90;;;;;;5051723;28;20116;-54
2022/11/21 01:28:34;;;;;;;117.03;40.90;;;3.80;99.90;;;;;;5051624;28;20409;-55
2022/11/21 01:31:07;;;;;;;120.23;41.40;;;3.80;99.90;;;;;;5051650;28;20211;-56
2022/11/21 01:33:33;;;;;;;118.60;41.30;;;3.80;99.90;;;;;;5051596;28;20035;-55
2022/11/21 01:36:16;;;;;;;120.50;40.60;;;3.80;99.90;;;;;;5051465;28;20040;-55
2022/11/21 01:38:45;;;;;;;117.47;41.27;;;3.90;99.90;;;;;;5051374;28;20032;-54
2022/11/21 01:41:13;;;;;;;118.77;39.77;;;3.90;99.90;;;;;;5051464;28;20051;-57
2022/11/21 01:43:38;;;;;;;115.17;40.23;;;4.00;99.90;;;;;;5052007;28;20021;-55
2022/11/21 01:46:07;;;;;;;106.80;38.83;;;3.90;99.90;;;;;;5051342;28;20389;-56
2022/11/21 01:48:35;;;;;;;115.63;39.47;;;3.90;99.90;;;;;;5050989;28;20029;-53
2022/11/21 01:51:31;;;;;;;111.97;39.83;;;3.90;99.90;;;;;;5051361;28;20370;-53
2022/11/21 01:54:03;;;;;;;112.63;38.70;;;3.80;99.90;;;;;;5051314;28;20563;-54
2022/11/21 01:56:33;;;;;;;120.13;39.27;;;3.90;99.90;;;;;;5051094;28;20041;-55
2022/11/21 01:59:02;;;;;;;119.70;40.57;;;3.90;99.90;;;;;;5050771;28;20163;-56
2022/11/21 02:01:28;;;;;;;116.88;41.47;;;3.90;99.90;;;;;;5051264;28;20029;-55
2022/11/21 02:03:57;;;;;;;110.03;38.93;;;4.00;99.90;;;;;;5051193;28;20028;-56
2022/11/21 02:06:24;;;;;;;115.50;40.42;;;3.90;99.90;;;;;;5050842;28;20048;-55
2022/11/21 02:08:50;;;;;;;112.57;40.07;;;3.90;99.90;;;;;;5050776;28;20444;-56
2022/11/21 02:11:41;;;;;;;116.07;39.20;;;3.80;99.90;;;;;;5050924;28;20271;-55
2022/11/21 02:14:07;;;;;;;129.13;41.23;;;3.80;99.90;;;;;;5050989;28;20481;-56
2022/11/21 02:16:34;;;;;;;122.43;39.03;;;3.80;99.90;;;;;;5050700;28;20435;-55
2022/11/21 02:19:00;;;;;;;110.93;37.77;;;3.80;99.90;;;;;;5050723;28;20032;-57
2022/11/21 02:21:53;;;;;;;108.93;37.60;;;3.80;99.90;;;;;;5050818;28;20112;-57
2022/11/21 02:24:38;;;;;;;106.60;36.33;;;3.80;99.90;;;;;;5050848;28;20040;-57
2022/11/21 02:27:04;;;;;;;107.77;38.03;;;3.70;99.90;;;;;;5049385;28;20115;-54
2022/11/21 02:29:31;;;;;;;110.33;38.07;;;3.70;99.90;;;;;;5050497;28;20166;-57
2022/11/21 02:32:04;;;;;;;124.50;39.80;;;3.70;99.90;;;;;;5050827;28;20492;-57
2022/11/21 02:34:30;;;;;;;124.90;38.33;;;3.70;99.90;;;;;;5050650;28;20111;-55
2022/11/21 02:36:56;;;;;;;117.43;38.70;;;3.70;99.90;;;;;;5050345;28;20470;-55
2022/11/21 02:39:35;;;;;;;116.27;38.20;;;3.70;99.90;;;;;;5050374;28;20044;-56
2022/11/21 02:42:28;;;;;;;119.65;38.15;;;3.70;99.90;;;;;;5050644;28;20111;-56
2022/11/21 02:45:08;;;;;;;130.20;39.20;;;3.70;99.90;;;;;;5042974;28;20076;-55
2022/11/21 02:47:35;;;;;;;127.70;38.93;;;3.70;99.90;;;;;;5050629;28;20033;-56
2022/11/21 02:50:11;;;;;;;117.13;37.93;;;3.60;99.90;;;;;;5050329;28;20402;-55
2022/11/21 02:52:37;;;;;;;129.73;40.80;;;3.70;99.90;;;;;;5050443;28;20044;-56
2022/11/21 02:55:04;;;;;;;127.33;39.23;;;3.80;99.90;;;;;;5049141;28;20033;-54
2022/11/21 02:57:29;;;;;;;122.23;38.57;;;3.60;99.90;;;;;;5050164;28;20029;-54
2022/11/21 02:59:55;;;;;;;127.43;40.33;;;3.60;99.90;;;;;;5050187;28;20040;-55
2022/11/21 03:02:20;;;;;;;128.93;40.90;;;3.60;99.90;;;;;;5050406;28;20082;-56
2022/11/21 03:04:46;;;;;;;132.37;41.20;;;3.60;99.90;;;;;;5050401;28;20437;-55
2022/11/21 03:07:12;;;;;;;121.33;40.20;;;3.60;99.90;;;;;;5049927;28;20036;-56
2022/11/21 03:09:38;;;;;;;125.87;39.77;;;3.60;99.90;;;;;;5050679;28;20040;-55
2022/11/21 03:12:08;;;;;;;117.80;38.67;;;3.60;99.90;;;;;;5054379;28;20090;-55
2022/11/21 03:14:35;;;;;;;116.97;39.10;;;3.50;99.90;;;;;;5054227;28;20033;-55
2022/11/21 03:17:01;;;;;;;107.73;37.77;;;3.50;99.90;;;;;;5054027;28;20040;-56
2022/11/21 03:19:27;;;;;;;106.77;36.77;;;3.50;99.90;;;;;;5053935;28;20029;-55
2022/11/21 03:21:53;;;;;;;107.43;37.70;;;3.30;99.90;;;;;;5054219;28;20021;-55
2022/11/21 03:24:18;;;;;;;105.43;36.63;;;3.30;99.90;;;;;;5054118;28;20021;-51
2022/11/21 03:26:44;;;;;;;102.70;35.57;;;3.40;99.90;;;;;;5053923;28;20056;-53
2022/11/21 03:29:10;;;;;;;109.37;36.73;;;3.40;99.90;;;;;;5053916;28;20033;-56
2022/11/21 03:31:35;;;;;;;106.93;34.80;;;3.30;99.90;;;;;;5054125;28;20073;-55
2022/11/21 03:34:02;;;;;;;101.13;34.80;;;3.30;99.90;;;;;;5054365;28;20035;-54
2022/11/21 03:36:28;;;;;;;104.23;34.20;;;3.40;99.90;;;;;;5053889;28;20028;-52
2022/11/21 03:38:57;;;;;;;105.90;35.57;;;3.40;99.90;;;;;;5053663;28;20393;-52
2022/11/21 03:41:30;;;;;;;113.07;35.63;;;3.50;99.90;;;;;;5053880;28;20029;-56
2022/11/21 03:44:00;;;;;;;111.63;35.97;;;3.50;99.90;;;;;;5053861;28;20021;-54
2022/11/21 03:46:28;;;;;;;114.53;35.50;;;3.50;99.90;;;;;;5053471;28;20036;-55
2022/11/21 03:48:54;;;;;;;104.93;35.13;;;3.60;99.90;;;;;;5053390;28;20033;-56
2022/11/21 03:51:19;;;;;;;99.30;36.13;;;3.60;99.90;;;;;;5053546;28;20029;-54
2022/11/21 03:53:45;;;;;;;99.13;35.77;;;3.50;99.90;;;;;;5053586;28;20028;-56
2022/11/21 03:56:11;;;;;;;99.20;34.70;;;3.50;99.90;;;;;;5053471;28;20032;-56
2022/11/21 03:58:37;;;;;;;93.40;32.50;;;3.40;99.90;;;;;;5053187;28;20059;-55
2022/11/21 04:01:04;;;;;;;106.27;35.57;;;3.40;99.90;;;;;;5053503;28;20025;-57
2022/11/21 04:03:30;;;;;;;100.33;33.47;;;3.40;99.90;;;;;;5053449;28;20040;-55
2022/11/21 04:05:56;;;;;;;101.23;34.13;;;3.50;99.90;;;;;;5053447;28;20041;-55
2022/11/21 04:08:22;;;;;;;107.10;35.77;;;3.50;99.90;;;;;;5053253;28;20131;-56
2022/11/21 04:10:49;;;;;;;101.23;32.23;;;3.60;99.90;;;;;;5053101;28;20033;-55
2022/11/21 04:13:15;;;;;;;77.90;24.83;;;3.50;99.90;;;;;;5053199;28;20043;-56
2022/11/21 04:15:41;;;;;;;66.57;23.20;;;3.50;99.90;;;;;;5069410;22;20047;-57
2022/11/21 04:18:07;;;;;;;74.03;22.63;;;3.50;99.90;;;;;;5051420;28;20033;-59
2022/11/21 04:20:33;;;;;;;67.23;21.33;;;3.50;99.90;;;;;;5052355;28;20017;-59
2022/11/21 04:22:59;;;;;;;70.07;22.17;;;3.40;99.90;;;;;;5053140;28;20535;-58
2022/11/21 04:25:24;;;;;;;66.67;21.70;;;3.40;99.90;;;;;;5053039;28;20033;-59
2022/11/21 04:27:50;;;;;;;69.17;22.07;;;3.40;99.90;;;;;;5052907;28;20067;-59
2022/11/21 04:30:16;;;;;;;67.77;22.33;;;3.40;99.90;;;;;;5052739;28;20029;-59
2022/11/21 04:32:43;;;;;;;68.83;22.23;;;3.50;99.90;;;;;;5052898;28;20374;-58
2022/11/21 04:35:09;;;;;;;69.37;21.50;;;3.50;99.90;;;;;;5052730;28;20029;-58
2022/11/21 04:37:37;;;;;;;69.63;21.93;;;3.50;99.90;;;;;;5052648;28;20272;-58
2022/11/21 04:40:03;;;;;;;68.25;21.65;;;3.50;99.90;;;;;;5052743;28;20383;-58
2022/11/21 04:42:29;;;;;;;64.47;22.63;;;3.50;99.90;;;;;;5052743;28;20334;-57
2022/11/21 04:44:55;;;;;;;67.30;23.67;;;3.50;99.90;;;;;;5052744;28;20111;-58
2022/11/21 04:47:20;;;;;;;65.57;22.53;;;3.50;99.90;;;;;;5052461;28;20725;-57
2022/11/21 04:49:46;;;;;;;60.37;23.20;;;3.60;99.90;;;;;;5052380;28;20126;-58
2022/11/21 04:52:12;;;;;;;60.13;22.70;;;3.60;99.90;;;;;;5052634;28;20059;-59
2022/11/21 04:54:37;;;;;;;64.63;22.93;;;3.60;99.90;;;;;;5052613;28;20088;-58
2022/11/21 04:57:03;;;;;;;68.03;23.77;;;3.60;99.90;;;;;;5052233;28;20481;-58
2022/11/21 04:59:29;;;;;;;62.77;22.80;;;3.60;99.90;;;;;;5052212;28;20048;-59
2022/11/21 05:01:54;;;;;;;64.90;23.40;;;3.60;99.90;;;;;;5052398;28;20481;-58
2022/11/21 05:04:20;;;;;;;69.33;23.60;;;3.60;99.90;;;;;;5052356;28;20029;-58
2022/11/21 05:06:46;;;;;;;62.20;24.27;;;3.60;99.90;;;;;;5052087;28;20123;-59
2022/11/21 05:09:11;;;;;;;70.33;25.47;;;3.50;99.90;;;;;;5052119;28;20025;-58
2022/11/21 05:14:24;;;;;;;61.70;23.50;;;3.50;99.90;;;;;;5051991;28;20021;-58
2022/11/21 05:16:51;;;;;;;65.78;23.92;;;3.50;99.90;;;;;;5051665;28;20031;-58
2022/11/21 05:19:16;;;;;;;67.03;24.33;;;3.50;99.90;;;;;;5051779;28;20025;-59
2022/11/21 05:21:42;;;;;;;66.20;24.20;;;3.50;99.90;;;;;;5051968;28;20486;-59
2022/11/21 05:24:08;;;;;;;69.87;24.50;;;3.40;99.90;;;;;;5052033;28;20082;-58
2022/11/21 05:26:34;;;;;;;74.13;24.43;;;3.50;99.90;;;;;;5051608;28;20047;-59
2022/11/21 05:28:59;;;;;;;74.10;25.23;;;3.50;99.90;;;;;;5051734;28;20025;-58
2022/11/21 05:31:25;;;;;;;74.20;26.10;;;3.50;99.90;;;;;;5051995;28;20035;-59
2022/11/21 05:33:51;;;;;;;75.23;26.27;;;3.50;99.90;;;;;;5051072;28;20033;-59
2022/11/21 05:36:16;;;;;;;75.97;25.40;;;3.60;99.90;;;;;;5051498;28;20040;-58
2022/11/21 05:38:42;;;;;;;77.93;26.80;;;3.60;99.90;;;;;;5051425;28;20394;-59
2022/11/21 05:41:08;;;;;;;84.67;26.40;;;3.60;99.90;;;;;;5051606;28;20036;-59
2022/11/21 05:43:46;;;;;;;80.27;26.27;;;3.60;99.90;;;;;;5051419;28;20041;-58
2022/11/21 05:46:13;;;;;;;77.40;25.93;;;3.50;99.90;;;;;;5051488;28;20436;-59
2022/11/21 05:48:39;;;;;;;79.07;26.07;;;3.40;99.90;;;;;;5051209;28;20405;-58
2022/11/21 05:51:05;;;;;;;86.67;27.63;;;3.40;99.90;;;;;;5051482;28;20037;-59
2022/11/21 05:53:31;;;;;;;83.17;27.93;;;3.40;99.90;;;;;;5051388;28;20039;-58
2022/11/21 05:56:05;;;;;;;84.90;27.33;;;3.50;99.90;;;;;;5051136;28;20044;-58
2022/11/21 05:58:31;;;;;;;89.80;27.00;;;3.50;99.90;;;;;;5050899;28;20028;-58
2022/11/21 06:00:58;;;;;;;80.77;28.87;;;3.50;99.90;;;;;;5051331;28;20048;-59
2022/11/21 06:03:27;;;;;;;92.47;29.20;;;3.50;99.90;;;;;;5051229;28;20036;-58
2022/11/21 06:06:00;;;;;;;84.75;29.10;;;3.50;99.90;;;;;;5051210;28;20439;-58
2022/11/21 06:08:27;;;;;;;79.43;28.70;;;3.50;99.90;;;;;;5050971;28;20094;-59
2022/11/21 06:10:53;;;;;;;85.77;27.70;;;3.50;99.90;;;;;;5051008;28;20382;-59
2022/11/21 06:13:22;;;;;;;86.00;27.07;;;3.50;99.90;;;;;;5051126;28;20029;-59
2022/11/21 06:16:12;;;;;;;73.60;26.80;;;3.50;99.90;;;;;;5049488;28;20037;-59
2022/11/21 06:18:41;;;;;;;73.47;26.10;;;3.60;99.90;;;;;;5044842;28;20400;-59
2022/11/21 06:21:21;;;;;;;79.80;26.08;;;3.60;99.90;;;;;;5050782;28;20378;-59
2022/11/21 06:23:51;;;;;;;82.43;26.40;;;3.70;99.90;;;;;;5051110;28;20040;-59
2022/11/21 06:26:18;;;;;;;;;;;3.70;99.90;;;;;;5051217;28;20020;-59
2022/11/21 06:28:44;;;;;;;69.23;24.77;;;3.70;99.90;;;;;;5049310;28;20342;-59
2022/11/21 06:31:21;;;;;;;73.00;24.07;;;3.80;99.90;;;;;;5050673;28;20039;-59
2022/11/21 06:33:50;;;;;;;71.63;24.17;;;3.70;99.90;;;;;;5050776;28;20477;-59
2022/11/21 06:36:17;;;;;;;64.68;23.80;;;3.70;99.90;;;;;;5050592;28;20078;-59
2022/11/21 06:38:44;;;;;;;60.73;22.53;;;3.60;99.90;;;;;;5050355;28;20063;-59
2022/11/21 06:41:12;;;;;;;62.07;22.87;;;3.60;99.90;;;;;;5050577;28;20017;-59
2022/11/21 06:43:39;;;;;;;68.60;23.50;;;3.60;99.90;;;;;;5050632;28;20037;-59
2022/11/21 06:46:05;;;;;;;67.80;23.47;;;3.70;99.90;;;;;;5049506;28;20056;-59
2022/11/21 06:48:32;;;;;;;73.30;23.00;;;3.70;99.90;;;;;;5050248;28;20048;-59
2022/11/21 06:51:05;;;;;;;67.90;23.33;;;3.70;99.90;;;;;;5050483;28;20029;-59
2022/11/21 06:53:31;;;;;;;71.27;23.27;;;3.70;99.90;;;;;;5050600;28;20104;-58
2022/11/21 06:55:58;;;;;;;72.77;23.93;;;3.70;99.90;;;;;;5050373;28;20375;-59
2022/11/21 06:58:24;;;;;;;75.07;24.77;;;3.70;99.90;;;;;;5050078;28;20033;-58
2022/11/21 07:00:50;;;;;;;76.33;24.37;;;3.70;99.90;;;;;;5050273;28;20082;-58
2022/11/21 07:03:16;;;;;;;78.23;24.20;;;3.70;99.90;;;;;;5050497;28;20112;-59
2022/11/21 07:05:41;;;;;;;79.20;23.97;;;3.70;99.90;;;;;;5050334;28;20037;-58
2022/11/21 07:08:07;;;;;;;78.47;24.20;;;3.80;99.90;;;;;;5050248;28;20039;-58
2022/11/21 07:10:33;;;;;;;78.60;25.07;;;3.80;99.90;;;;;;5050030;28;20029;-59
2022/11/21 07:15:45;;;;;;;78.17;23.70;;;3.80;99.90;;;;;;5050240;28;20503;-58
2022/11/21 07:18:11;;;;;;;96.73;28.13;;;3.80;99.90;;;;;;5050053;28;20033;-58
2022/11/21 07:20:36;;;;;;;97.17;29.10;;;3.90;99.90;;;;;;5049872;28;20681;-59
2022/11/21 07:23:02;;;;;;;93.73;27.97;;;3.90;99.90;;;;;;5050116;28;20033;-58
2022/11/21 07:25:28;;;;;;;105.57;29.93;;;3.90;99.90;;;;;;5050069;28;20056;-58
2022/11/21 07:27:57;;;;;;;104.33;30.07;;;3.90;99.90;;;;;;5050296;28;20389;-58
2022/11/21 07:30:23;;;;;;;105.78;30.00;;;3.90;99.90;;;;;;5049787;28;20029;-58
2022/11/21 07:33:04;;;;;;;104.37;31.00;;;4.00;99.90;;;;;;5050147;28;20035;-59
2022/11/21 07:35:30;;;;;;;107.17;30.20;;;4.00;99.90;;;;;;5049878;28;20523;-59
2022/11/21 07:37:55;;;;;;;111.50;31.77;;;4.00;99.90;;;;;;5050281;28;20024;-58
2022/11/21 07:40:21;;;;;;;116.40;32.33;;;4.00;99.90;;;;;;5049730;28;20037;-58
2022/11/21 07:42:47;;;;;;;113.83;32.70;;;4.00;99.90;;;;;;5049985;28;20069;-58
2022/11/21 07:45:14;;;;;;;107.20;30.53;;;4.00;99.90;;;;;;5050081;28;20044;-59
2022/11/21 07:47:40;;;;;;;126.50;34.70;;;4.00;99.90;;;;;;5049631;28;20040;-58
2022/11/21 07:50:07;;;;;;;109.20;30.90;;;4.10;99.90;;;;;;5049747;28;20029;-60
2022/11/21 07:52:33;;;;;;;98.73;29.90;;;4.10;99.90;;;;;;5049828;28;20037;-59
2022/11/21 07:55:01;;;;;;;111.23;32.00;;;4.10;99.90;;;;;;5049881;28;20036;-59
2022/11/21 07:57:27;;;;;;;106.63;31.20;;;4.20;99.90;;;;;;5052576;28;20021;-58
2022/11/21 07:59:53;;;;;;;106.33;31.53;;;4.20;99.90;;;;;;5053298;28;20033;-59
2022/11/21 08:02:21;;;;;;;107.53;30.43;;;4.20;99.90;;;;;;5053482;28;20036;-58
2022/11/21 08:04:47;;;;;;;123.63;33.60;;;4.20;99.90;;;;;;5053502;28;20291;-58
2022/11/21 08:07:17;;;;;;;124.53;32.30;;;4.30;99.90;;;;;;5053024;28;20033;-59
2022/11/21 08:09:43;;;;;;;125.47;33.60;;;4.30;99.90;;;;;;5053023;28;20029;-59
2022/11/21 08:12:09;;;;;;;108.60;31.60;;;4.40;99.90;;;;;;5053339;28;20040;-58
2022/11/21 08:14:35;;;;;;;120.57;32.63;;;4.40;99.90;;;;;;5053202;28;20104;-59
2022/11/21 08:17:01;;;;;;;117.80;33.27;;;4.50;99.90;;;;;;5052893;28;20455;-58
2022/11/21 08:19:27;;;;;;;121.07;34.17;;;4.50;99.90;;;;;;5052924;28;20030;-59
2022/11/21 08:21:53;;;;;;;112.53;33.13;;;4.60;99.90;;;;;;5053025;28;20443;-59
2022/11/21 08:24:18;;;;;;;120.03;32.77;;;4.60;99.90;;;;;;5053276;28;20136;-58
2022/11/21 08:26:45;;;;;;;119.33;33.87;;;4.60;99.90;;;;;;5052837;28;20033;-59
2022/11/21 08:29:11;;;;;;;122.70;31.90;;;4.60;99.90;;;;;;5052718;28;20029;-59
2022/11/21 08:31:38;;;;;;;127.30;33.40;;;4.60;99.90;;;;;;5052980;28;20029;-59
2022/11/21 08:34:04;;;;;;;126.50;33.30;;;4.60;99.90;;;;;;5052824;28;20032;-59
2022/11/21 08:36:29;;;;;;;127.07;34.23;;;4.70;99.90;;;;;;5052591;28;20466;-58
2022/11/21 08:38:55;;;;;;;124.50;34.80;;;4.70;99.90;;;;;;5052708;28;20052;-59
2022/11/21 08:44:06;;;;;;;139.70;34.80;;;4.80;99.90;;;;;;5052653;28;20029;-58
2022/11/21 08:46:36;;;;;;;135.70;35.10;;;4.80;99.90;;;;;;5052332;28;20029;-59
2022/11/21 08:49:05;;;;;;;143.23;37.30;;;4.80;99.90;;;;;;5052802;28;20052;-58
2022/11/21 08:51:31;;;;;;;132.00;34.67;;;4.90;99.90;;;;;;5052526;28;20108;-59
2022/11/21 08:53:57;;;;;;;120.87;33.47;;;4.90;99.90;;;;;;5052683;28;20451;-59
2022/11/21 08:56:23;;;;;;;115.20;33.13;;;5.00;99.90;;;;;;5052304;28;20056;-58
2022/11/21 08:58:49;;;;;;;109.93;32.37;;;5.00;99.90;;;;;;5052217;28;20033;-59
2022/11/21 09:01:14;;;;;;;97.23;30.40;;;5.10;99.90;;;;;;5052279;28;20112;-58
2022/11/21 09:03:40;;;;;;;105.93;31.97;;;5.20;99.90;;;;;;5052333;28;20025;-58
2022/11/21 09:06:06;;;;;;;99.80;31.23;;;5.20;99.90;;;;;;5052208;28;20029;-59
2022/11/21 09:08:32;;;;;;;112.77;31.63;;;5.20;99.90;;;;;;5050923;28;20493;-59
2022/11/21 09:11:02;;;;;;;115.97;33.73;;;5.20;99.90;;;;;;5052167;28;20041;-59
2022/11/21 09:13:27;;;;;;;;;;;5.30;99.90;;;;;;5052720;28;20052;-59
2022/11/21 09:18:37;;;;;;;101.97;30.47;;;5.40;99.90;;;;;;5051534;28;20033;-59
2022/11/21 09:21:03;;;;;;;108.83;32.07;;;5.40;99.90;;;;;;5052004;28;20386;-59
2022/11/21 09:23:29;;;;;;;89.43;30.00;;;5.40;99.90;;;;;;5052247;28;20032;-60
2022/11/21 09:25:55;;;;;;;85.00;28.60;;;5.50;99.90;;;;;;5051874;28;20484;-59
2022/11/21 09:28:20;;;;;;;85.70;29.17;;;5.50;99.90;;;;;;5051634;28;20036;-59
2022/11/21 09:30:46;;;;;;;87.40;28.37;;;5.60;99.90;;;;;;5051567;28;20489;-59
2022/11/21 09:33:15;;;;;;;78.83;27.70;;;5.60;99.90;;;;;;5051842;28;20114;-60
2022/11/21 09:35:41;;;;;;;67.05;25.85;;;5.70;99.90;;;;;;5051812;28;20033;-61
2022/11/21 09:38:07;;;;;;;73.30;25.40;;;5.70;99.90;;;;;;5050304;28;20569;-59
2022/11/21 09:40:34;;;;;;;75.07;26.00;;;5.80;99.90;;;;;;5051404;28;20025;-59
2022/11/21 09:43:27;;;;;;;74.10;26.17;;;5.70;99.90;;;;;;5051479;28;20029;-59
2022/11/21 09:46:15;;;;;;;87.20;31.30;;;5.80;99.90;;;;;;5051387;28;20025;-59
2022/11/21 09:48:57;;;;;;;66.23;26.37;;;6.00;99.90;;;;;;5051446;28;20384;-59
2022/11/21 09:51:24;;;;;;;44.33;20.03;;;6.70;99.90;;;;;;5051431;28;20040;-59
2022/11/21 09:54:18;;;;;;;48.03;21.60;;;7.20;99.90;;;;;;5051416;28;20040;-59
2022/11/21 09:56:46;;;;;;;40.80;19.80;;;7.60;99.90;;;;;;5046854;28;20080;-59
2022/11/21 09:59:31;;;;;;;37.60;20.23;;;7.80;99.90;;;;;;5051173;28;20029;-59
2022/11/21 10:01:57;;;;;;;36.83;18.83;;;7.80;99.90;;;;;;5051600;28;20044;-59
2022/11/21 10:04:23;;;;;;;35.47;18.13;;;7.90;99.90;;;;;;5051231;28;20029;-59
2022/11/21 10:07:02;;;;;;;36.17;17.77;;;7.80;99.90;;;;;;5049801;28;20393;-59
2022/11/21 10:09:52;;;;;;;29.90;15.07;;;7.70;99.90;;;;;;5050865;28;20040;-59
2022/11/21 10:12:47;;;;;;;32.20;15.77;;;7.50;99.90;;;;;;5050869;28;20075;-59
2022/11/21 10:15:25;;;;;;;39.53;17.73;;;7.50;99.90;;;;;;5029309;28;20037;-59
2022/11/21 10:18:37;;;;;;;27.07;13.20;;;8.10;99.90;;;;;;5064530;22;20052;-50
2022/11/21 10:21:21;;;;;;;23.60;13.67;;;8.90;99.90;;;;;;5038521;28;20444;-55
2022/11/21 10:24:12;;;;;;;22.03;13.27;;;9.20;99.90;;;;;;5051007;28;20031;-52
2022/11/21 10:26:48;;;;;;;19.30;12.07;;;9.10;99.90;;;;;;5050558;28;20116;-54
2022/11/21 10:29:37;;;;;;;19.40;11.83;;;8.70;99.90;;;;;;5050839;28;20033;-54
2022/11/21 10:32:21;;;;;;;21.30;11.80;;;8.40;99.90;;;;;;5050642;28;20531;-53
2022/11/21 10:34:50;;;;;;;20.27;11.60;;;8.20;99.90;;;;;;5050715;28;20467;-54
2022/11/21 10:37:26;;;;;;;20.27;12.93;;;8.00;99.90;;;;;;5050221;28;20029;-54
2022/11/21 10:39:55;;;;;;;18.13;11.37;;;7.80;99.90;;;;;;5050321;28;20029;-53
2022/11/21 10:42:59;;;;;;;18.55;11.77;;;7.70;99.90;;;;;;5049361;28;20477;-54
2022/11/21 10:45:25;;;;;;;20.20;11.63;;;7.70;99.90;;;;;;5050509;28;20102;-54
2022/11/21 10:47:52;;;;;;;20.87;11.93;;;7.70;99.90;;;;;;5050300;28;20469;-50
2022/11/21 10:50:38;;;;;;;20.43;9.87;;;8.00;99.90;;;;;;5050226;28;20039;-51
2022/11/21 10:54:31;;;;;;;16.23;10.07;;;9.20;99.90;;;;;;5050408;28;20068;-55
2022/11/21 10:56:11;;;;;;;13.93;8.18;;;9.80;99.90;;;;;;5050069;28;20076;-56
2022/11/21 10:58:56;;;;;;;14.07;8.50;;;9.70;99.90;;;;;;5049939;28;20025;-54
2022/11/21 11:01:25;;;;;;;16.33;8.30;;;9.70;99.90;;;;;;5050428;28;20100;-54
2022/11/21 11:04:15;;;;;;;20.50;9.07;;;9.60;99.90;;;;;;5050331;28;20037;-54
2022/11/21 11:06:44;;;;;;;13.43;8.00;;;9.10;99.90;;;;;;5042681;28;20375;-53
2022/11/21 11:09:30;;;;;;;18.00;8.70;;;8.90;99.90;;;;;;5050160;28;20027;-56
2022/11/21 11:15:25;;;;;;;15.13;8.25;;;8.60;99.90;;;;;;5050126;28;20374;-49
2022/11/21 11:17:59;;;;;;;17.03;8.37;;;8.50;99.90;;;;;;5049726;28;20028;-52
2022/11/21 11:20:29;;;;;;;16.90;8.50;;;8.40;99.90;;;;;;5049946;28;20021;-52
2022/11/21 11:22:55;;;;;;;16.20;8.67;;;8.30;99.90;;;;;;5050107;28;20033;-52
2022/11/21 11:25:22;;;;;;;20.77;9.07;;;8.20;99.90;;;;;;5049939;28;20044;-52
2022/11/21 11:27:48;;;;;;;16.17;7.80;;;8.30;99.90;;;;;;5049963;28;20039;-53
2022/11/21 11:30:15;;;;;;;20.23;8.53;;;8.30;99.90;;;;;;5049880;28;20048;-50
2022/11/21 11:32:41;;;;;;;20.90;7.73;;;8.20;99.90;;;;;;5053686;28;20037;-52
2022/11/21 11:35:16;;;;;;;18.60;7.30;;;8.30;99.90;;;;;;5053967;28;20040;-51
2022/11/21 11:37:47;;;;;;;11.47;6.20;;;8.40;99.90;;;;;;5053631;28;20029;-51
2022/11/21 11:40:29;;;;;;;21.27;7.40;;;8.50;99.90;;;;;;5053610;28;20599;-51
2022/11/21 11:49:16;;;;;;;16.80;5.90;;;9.10;99.90;;;;;;5053544;28;20056;-49
2022/11/21 11:51:49;;;;;;;15.13;5.70;;;9.20;99.90;;;;;;5054017;28;20043;-51
2022/11/21 11:54:17;;;;;;;11.63;5.33;;;9.10;99.90;;;;;;5053402;28;20043;-54
2022/11/21 11:56:44;;;;;;;16.30;5.67;;;9.10;99.90;;;;;;5053514;28;20036;-50
2022/11/21 11:59:17;;;;;;;8.80;4.50;;;9.20;99.90;;;;;;5053180;28;20044;-55
2022/11/21 12:01:55;;;;;;;12.60;4.83;;;9.30;99.90;;;;;;5053565;28;20037;-54
2022/11/21 12:04:23;;;;;;;12.77;4.93;;;9.70;99.90;;;;;;5053598;28;20025;-53
2022/11/21 12:07:14;;;;;;;12.73;4.90;;;10.20;99.90;;;;;;5053133;28;20028;-52
2022/11/21 12:09:47;;;;;;;16.57;5.63;;;10.10;99.90;;;;;;5053209;28;20035;-52
2022/11/21 12:12:22;;;;;;;12.13;4.37;;;10.00;99.90;;;;;;5053173;28;20033;-52
2022/11/21 12:18:18;;;;;;;16.10;5.50;;;10.50;99.90;;;;;;5052986;28;20044;-53
2022/11/21 12:21:12;;;;;;;13.43;4.32;;;10.90;99.90;;;;;;5052828;28;20039;-54
2022/11/21 12:23:50;;;;;;;15.48;5.65;;;11.10;99.90;;;;;;5052923;28;20503;-52
2022/11/21 12:26:19;;;;;;;14.80;4.60;;;11.30;99.90;;;;;;5053073;28;20461;-54
2022/11/21 12:28:53;;;;;;;13.55;4.47;;;11.50;99.90;;;;;;5052753;28;20033;-57
2022/11/21 12:31:31;;;;;;;11.90;3.75;;;11.70;99.90;;;;;;5053023;28;20041;-56
2022/11/21 12:34:19;;;;;;;8.38;3.17;;;12.90;99.90;;;;;;5052732;28;20478;-56
2022/11/21 12:36:55;;;;;;;12.13;3.28;;;14.70;99.90;;;;;;5052753;28;20036;-54
2022/11/21 12:39:40;;;;;;;14.80;3.25;;;15.60;99.90;;;;;;5052668;28;20075;-56
2022/11/21 12:42:49;;;;;;;9.05;2.90;;;16.10;97.30;;;;;;5052583;28;20036;-54
2022/11/21 12:45:45;;;;;;;12.90;5.53;;;15.90;97.70;;;;;;5052787;28;20086;-56
2022/11/21 12:55:09;;;;;;;9.40;3.08;;;15.20;98.90;;;;;;5052344;28;20029;-56
2022/11/21 12:57:40;;;;;;;9.43;2.60;;;14.30;99.90;;;;;;5052051;28;20527;-53
2022/11/21 13:00:31;;;;;;;26.70;16.98;;;13.10;99.90;;;;;;5052077;28;20398;-55
2022/11/21 13:03:22;;;;;;;14.95;8.60;;;12.30;99.90;;;;;;5052326;28;20482;-52
2022/11/21 13:05:52;;;;;;;12.73;6.50;;;11.60;99.90;;;;;;5052261;28;20090;-54
2022/11/21 13:08:24;;;;;;;16.27;5.40;;;11.10;99.90;;;;;;5051934;28;20120;-55
2022/11/21 13:14:31;;;;;;;16.55;7.70;;;10.40;99.90;;;;;;5029520;28;20076;-53
2022/11/21 13:17:11;;;;;;;13.10;4.43;;;10.10;99.90;;;;;;5029380;28;20029;-50
2022/11/21 13:19:51;;;;;;;8.87;3.97;;;10.00;99.90;;;;;;5045064;28;20045;-54
2022/11/21 13:22:43;;;;;;;15.53;5.27;;;9.90;99.90;;;;;;5052180;28;20025;-55